createdAt,value
2022-09-17T00:00:18.401Z,2.63
2022-09-17T00:01:23.631Z,2.80
2022-09-17T00:02:26.734Z,2.97
2022-09-17T00:03:29.342Z,3.77
2022-09-17T00:04:31.833Z,2.50
2022-09-17T00:05:37.475Z,2.83
2022-09-17T00:06:42.912Z,4.17
2022-09-17T00:07:45.736Z,1.93
2022-09-17T00:08:48.136Z,1.70
2022-09-17T00:09:50.281Z,3.40
2022-09-17T00:10:52.530Z,3.40
2022-09-17T00:11:54.657Z,1.40
2022-09-17T00:12:56.791Z,1.77
2022-09-17T00:14:01.285Z,2.07
2022-09-17T00:15:03.644Z,1.93
2022-09-17T00:16:08.511Z,2.67
2022-09-17T00:17:15.996Z,2.83
2022-09-17T00:18:18.375Z,2.20
2022-09-17T00:19:25.619Z,3.13
2022-09-17T00:20:27.942Z,3.00
2022-09-17T00:21:30.743Z,2.20
2022-09-17T00:22:32.875Z,6.10
2022-09-17T00:23:35.080Z,2.93
2022-09-17T00:24:37.234Z,3.60
2022-09-17T00:25:41.637Z,1.83
2022-09-17T00:26:44.857Z,3.07
2022-09-17T00:27:50.017Z,2.70
2022-09-17T00:28:53.799Z,3.97
2022-09-17T00:29:58.308Z,3.83
2022-09-17T00:31:00.538Z,3.37
2022-09-17T00:32:02.683Z,2.63
2022-09-17T00:33:04.843Z,1.73
2022-09-17T00:34:07.572Z,3.53
2022-09-17T00:35:09.777Z,4.40
2022-09-17T00:36:12.049Z,4.57
2022-09-17T00:37:14.177Z,4.40
2022-09-17T00:38:16.313Z,1.70
2022-09-17T00:39:18.681Z,4.70
2022-09-17T00:40:22.193Z,3.73
2022-09-17T00:41:27.958Z,3.33
2022-09-17T00:42:30.190Z,2.13
2022-09-17T00:43:39.211Z,1.97
2022-09-17T00:44:52.816Z,4.07
2022-09-17T00:45:55.335Z,2.00
2022-09-17T00:46:58.921Z,3.20
2022-09-17T00:48:04.276Z,2.50
2022-09-17T00:49:21.764Z,2.33
2022-09-17T00:50:29.914Z,2.27
2022-09-17T00:51:37.693Z,1.90
2022-09-17T00:52:49.978Z,3.03
2022-09-17T00:53:52.208Z,4.23
2022-09-17T00:55:01.453Z,2.73
2022-09-17T00:56:10.033Z,1.87
2022-09-17T00:57:12.358Z,4.53
2022-09-17T00:58:16.968Z,4.50
2022-09-17T00:59:20.196Z,2.00
2022-09-17T01:00:25.386Z,4.47
2022-09-17T01:01:31.554Z,2.30
2022-09-17T01:02:37.764Z,4.10
2022-09-17T01:03:39.906Z,5.10
2022-09-17T01:04:43.062Z,2.77
2022-09-17T01:05:50.081Z,3.77
2022-09-17T01:07:08.086Z,3.93
2022-09-17T01:08:13.270Z,3.67
2022-09-17T01:09:56.257Z,2.93
2022-09-17T01:11:21.591Z,1.30
2022-09-17T01:12:42.136Z,2.90
2022-09-17T01:14:18.682Z,3.07
2022-09-17T01:15:34.624Z,3.63
2022-09-17T01:17:23.148Z,3.30
2022-09-17T01:18:39.241Z,2.80
2022-09-17T01:20:06.414Z,2.53
2022-09-17T01:21:30.113Z,1.97
2022-09-17T01:23:01.405Z,3.00
2022-09-17T01:24:41.304Z,2.73
2022-09-17T01:26:00.583Z,1.30
2022-09-17T01:27:44.982Z,2.97
2022-09-17T01:29:15.078Z,3.03
2022-09-17T01:30:26.488Z,1.83
2022-09-17T01:31:39.060Z,2.77
2022-09-17T01:32:59.544Z,4.07
2022-09-17T01:34:07.516Z,1.93
2022-09-17T01:35:19.365Z,2.63
2022-09-17T01:36:45.248Z,2.27
2022-09-17T01:38:14.067Z,5.67
2022-09-17T01:39:33.013Z,3.13
2022-09-17T01:40:51.043Z,2.50
2022-09-17T01:42:00.761Z,1.90
2022-09-17T01:43:21.610Z,3.00
2022-09-17T01:44:32.647Z,2.53
2022-09-17T01:45:48.259Z,3.13
2022-09-17T01:46:58.067Z,2.40
2022-09-17T01:48:11.676Z,2.53
2022-09-17T01:49:16.100Z,1.60
2022-09-17T01:50:26.376Z,2.43
2022-09-17T01:51:35.337Z,4.00
2022-09-17T01:52:40.614Z,1.83
2022-09-17T01:54:04.904Z,2.40
2022-09-17T01:55:12.231Z,1.80
2022-09-17T01:56:21.522Z,2.13
2022-09-17T01:57:30.281Z,2.17
2022-09-17T01:58:40.551Z,3.07
2022-09-17T02:00:03.873Z,5.50
2022-09-17T02:01:17.585Z,2.37
2022-09-17T02:02:56.382Z,2.30
2022-09-17T02:04:09.702Z,3.03
2022-09-17T02:05:19.430Z,2.77
2022-09-17T02:06:40.508Z,2.00
2022-09-17T02:07:49.867Z,2.43
2022-09-17T02:08:56.913Z,2.97
2022-09-17T02:10:07.965Z,4.03
2022-09-17T02:11:14.470Z,3.90
2022-09-17T02:12:26.564Z,2.90
2022-09-17T02:13:36.632Z,3.40
2022-09-17T02:14:47.109Z,2.87
2022-09-17T02:15:57.362Z,2.57
2022-09-17T02:17:27.310Z,1.90
2022-09-17T02:18:41.341Z,3.87
2022-09-17T02:19:45.869Z,2.43
2022-09-17T02:21:00.503Z,2.57
2022-09-17T02:22:21.307Z,3.90
2022-09-17T02:23:29.892Z,1.73
2022-09-17T02:24:48.658Z,1.60
2022-09-17T02:25:57.464Z,2.07
2022-09-17T02:27:11.031Z,1.97
2022-09-17T02:28:20.971Z,2.90
2022-09-17T02:29:31.763Z,4.07
2022-09-17T02:30:34.630Z,3.10
2022-09-17T02:31:36.902Z,2.27
2022-09-17T02:32:41.503Z,1.57
2022-09-17T02:33:48.350Z,2.90
2022-09-17T02:34:50.729Z,2.40
2022-09-17T02:35:53.098Z,2.00
2022-09-17T02:36:56.945Z,2.67
2022-09-17T02:38:00.659Z,3.00
2022-09-17T02:39:04.475Z,2.93
2022-09-17T02:40:11.767Z,2.80
2022-09-17T02:41:23.308Z,2.30
2022-09-17T02:42:45.529Z,2.30
2022-09-17T02:44:03.583Z,2.63
2022-09-17T02:45:16.438Z,1.73
2022-09-17T02:46:52.174Z,3.87
2022-09-17T02:48:33.877Z,1.43
2022-09-17T02:49:55.226Z,2.57
2022-09-17T02:51:19.137Z,2.57
2022-09-17T02:52:27.534Z,2.50
2022-09-17T02:53:33.760Z,3.73
2022-09-17T02:54:54.444Z,2.90
2022-09-17T02:56:15.529Z,2.27
2022-09-17T02:57:27.720Z,1.57
2022-09-17T02:58:55.094Z,2.23
2022-09-17T03:00:09.568Z,2.13
2022-09-17T03:01:24.107Z,2.63
2022-09-17T03:02:43.543Z,2.17
2022-09-17T03:03:50.351Z,2.33
2022-09-17T03:04:52.908Z,3.40
2022-09-17T03:05:56.379Z,2.90
2022-09-17T03:07:02.005Z,2.77
2022-09-17T03:08:04.991Z,2.63
2022-09-17T03:09:07.120Z,1.60
2022-09-17T03:10:09.456Z,4.17
2022-09-17T03:11:13.017Z,3.40
2022-09-17T03:12:15.746Z,2.23
2022-09-17T03:13:31.685Z,3.30
2022-09-17T03:14:37.435Z,2.40
2022-09-17T03:15:42.879Z,2.73
2022-09-17T03:16:45.063Z,3.33
2022-09-17T03:17:51.237Z,1.97
2022-09-17T03:18:56.282Z,3.03
2022-09-17T03:19:58.456Z,4.03
2022-09-17T03:21:00.638Z,1.73
2022-09-17T03:22:03.211Z,1.00
2022-09-17T03:23:05.350Z,1.97
2022-09-17T03:24:08.358Z,3.47
2022-09-17T03:25:11.646Z,1.67
2022-09-17T03:26:21.123Z,3.10
2022-09-17T03:27:23.528Z,1.80
2022-09-17T03:28:26.647Z,1.87
2022-09-17T03:29:29.690Z,2.73
2022-09-17T03:30:34.373Z,2.60
2022-09-17T03:31:36.597Z,3.10
2022-09-17T03:32:38.903Z,2.67
2022-09-17T03:33:43.594Z,3.07
2022-09-17T03:34:47.065Z,2.07
2022-09-17T03:35:49.441Z,2.17
2022-09-17T03:36:54.670Z,2.67
2022-09-17T03:37:57.422Z,2.10
2022-09-17T03:38:59.768Z,2.63
2022-09-17T03:40:02.509Z,2.63
2022-09-17T03:41:07.707Z,1.97
2022-09-17T03:42:09.838Z,2.87
2022-09-17T03:43:11.965Z,1.47
2022-09-17T03:44:15.572Z,3.33
2022-09-17T03:45:17.915Z,2.73
2022-09-17T03:46:20.578Z,2.00
2022-09-17T03:47:22.971Z,1.20
2022-09-17T03:48:29.717Z,4.57
2022-09-17T03:49:32.006Z,1.97
2022-09-17T03:50:34.144Z,4.00
2022-09-17T03:51:36.327Z,3.83
2022-09-17T03:52:43.366Z,3.60
2022-09-17T03:53:45.569Z,2.60
2022-09-17T03:54:48.324Z,2.63
2022-09-17T03:55:50.738Z,3.53
2022-09-17T03:56:52.861Z,2.87
2022-09-17T03:57:56.238Z,2.00
2022-09-17T03:59:02.220Z,1.63
2022-09-17T04:00:05.421Z,3.13
2022-09-17T04:01:14.152Z,2.20
2022-09-17T04:02:16.443Z,3.67
2022-09-17T04:03:19.382Z,1.90
2022-09-17T04:04:21.857Z,3.33
2022-09-17T04:05:24.222Z,2.63
2022-09-17T04:06:26.376Z,2.33
2022-09-17T04:07:35.819Z,2.37
2022-09-17T04:08:37.943Z,1.63
2022-09-17T04:09:40.065Z,3.23
2022-09-17T04:10:45.321Z,2.80
2022-09-17T04:11:47.451Z,6.73
2022-09-17T04:12:49.656Z,3.03
2022-09-17T04:13:51.791Z,2.07
2022-09-17T04:14:53.963Z,2.50
2022-09-17T04:15:56.128Z,6.00
2022-09-17T04:16:58.977Z,2.03
2022-09-17T04:18:01.121Z,2.70
2022-09-17T04:19:04.893Z,3.17
2022-09-17T04:20:07.488Z,2.70
2022-09-17T04:21:10.743Z,1.87
2022-09-17T04:22:12.982Z,1.90
2022-09-17T04:23:15.706Z,1.90
2022-09-17T04:24:17.869Z,2.37
2022-09-17T04:25:20.054Z,3.67
2022-09-17T04:26:25.414Z,1.90
2022-09-17T04:27:27.562Z,1.57
2022-09-17T04:28:37.287Z,2.53
2022-09-17T04:29:41.680Z,2.70
2022-09-17T04:30:43.832Z,2.07
2022-09-17T04:31:46.088Z,1.80
2022-09-17T04:32:48.324Z,3.40
2022-09-17T04:33:53.888Z,2.20
2022-09-17T04:34:56.011Z,1.70
2022-09-17T04:35:58.220Z,2.17
2022-09-17T04:37:00.392Z,2.70
2022-09-17T04:38:02.709Z,4.00
2022-09-17T04:39:04.996Z,2.33
2022-09-17T04:40:08.403Z,2.40
2022-09-17T04:41:10.658Z,1.80
2022-09-17T04:42:12.775Z,1.90
2022-09-17T04:43:15.315Z,4.03
2022-09-17T04:44:17.617Z,3.00
2022-09-17T04:45:20.604Z,3.23
2022-09-17T04:46:25.840Z,4.40
2022-09-17T04:47:28.642Z,1.90
2022-09-17T04:48:30.814Z,2.57
2022-09-17T04:49:33.032Z,2.53
2022-09-17T04:50:38.246Z,1.83
2022-09-17T04:51:40.393Z,3.53
2022-09-17T04:52:43.546Z,2.27
2022-09-17T04:53:48.592Z,2.07
2022-09-17T04:54:50.703Z,2.43
2022-09-17T04:55:52.918Z,2.03
2022-09-17T04:56:55.063Z,2.57
2022-09-17T04:57:57.468Z,1.83
2022-09-17T04:58:59.707Z,5.33
2022-09-17T05:00:02.364Z,2.93
2022-09-17T05:01:06.893Z,1.40
2022-09-17T05:02:09.115Z,1.93
2022-09-17T05:03:11.339Z,1.30
2022-09-17T05:04:13.558Z,2.50
2022-09-17T05:05:17.095Z,3.60
2022-09-17T05:06:19.259Z,3.00
2022-09-17T05:07:21.421Z,3.30
2022-09-17T05:08:24.161Z,3.80
2022-09-17T05:09:26.886Z,3.83
2022-09-17T05:10:29.305Z,1.87
2022-09-17T05:11:31.448Z,3.13
2022-09-17T05:12:34.562Z,2.97
2022-09-17T05:13:36.936Z,1.43
2022-09-17T05:14:39.116Z,1.50
2022-09-17T05:15:41.303Z,2.60
2022-09-17T05:16:43.517Z,2.10
2022-09-17T05:17:46.161Z,2.80
2022-09-17T05:18:49.668Z,3.60
2022-09-17T05:19:53.419Z,5.73
2022-09-17T05:20:55.631Z,1.87
2022-09-17T05:21:57.808Z,2.97
2022-09-17T05:22:59.978Z,2.73
2022-09-17T05:24:04.624Z,1.60
2022-09-17T05:25:07.038Z,3.23
2022-09-17T05:26:09.643Z,2.03
2022-09-17T05:27:12.727Z,2.87
2022-09-17T05:28:14.852Z,3.60
2022-09-17T05:29:17.025Z,3.23
2022-09-17T05:30:19.617Z,3.97
2022-09-17T05:31:21.833Z,1.40
2022-09-17T05:32:24.055Z,3.20
2022-09-17T05:33:26.309Z,2.13
2022-09-17T05:34:28.628Z,1.70
2022-09-17T05:35:31.845Z,3.43
2022-09-17T05:36:34.017Z,1.83
2022-09-17T05:37:37.241Z,2.57
2022-09-17T05:38:39.458Z,1.63
2022-09-17T05:39:41.625Z,1.83
2022-09-17T05:40:43.814Z,1.97
2022-09-17T05:41:45.985Z,2.87
2022-09-17T05:42:51.132Z,2.20
2022-09-17T05:43:53.276Z,3.17
2022-09-17T05:44:55.415Z,1.60
2022-09-17T05:46:04.679Z,2.00
2022-09-17T05:47:06.997Z,2.37
2022-09-17T05:48:13.691Z,2.40
2022-09-17T05:49:15.861Z,2.90
2022-09-17T05:50:18.003Z,1.63
2022-09-17T05:51:20.225Z,2.60
2022-09-17T05:52:22.378Z,2.20
2022-09-17T05:53:24.642Z,1.93
2022-09-17T05:54:27.301Z,1.57
2022-09-17T05:55:29.715Z,2.80
2022-09-17T05:56:32.094Z,1.30
2022-09-17T05:57:34.426Z,2.10
2022-09-17T05:58:39.214Z,2.10
2022-09-17T05:59:41.351Z,2.17
2022-09-17T06:00:44.341Z,1.97
2022-09-17T06:01:46.560Z,1.60
2022-09-17T06:02:55.018Z,1.40
2022-09-17T06:03:57.394Z,2.63
2022-09-17T06:05:01.851Z,1.43
2022-09-17T06:06:04.767Z,1.23
2022-09-17T06:07:10.282Z,1.30
2022-09-17T06:08:12.566Z,2.97
2022-09-17T06:09:14.833Z,1.40
2022-09-17T06:10:17.447Z,1.63
2022-09-17T06:11:22.468Z,1.60
2022-09-17T06:12:24.587Z,1.30
2022-09-17T06:13:26.829Z,1.77
2022-09-17T06:14:28.962Z,1.83
2022-09-17T06:15:31.107Z,1.53
2022-09-17T06:16:33.310Z,1.60
2022-09-17T06:17:36.451Z,1.57
2022-09-17T06:18:38.613Z,1.13
2022-09-17T06:19:40.751Z,1.40
2022-09-17T06:20:42.868Z,1.13
2022-09-17T06:21:47.231Z,1.03
2022-09-17T06:22:49.382Z,1.20
2022-09-17T06:23:51.557Z,1.50
2022-09-17T06:24:53.714Z,1.23
2022-09-17T06:25:58.673Z,1.80
2022-09-17T06:27:00.830Z,0.90
2022-09-17T06:28:03.509Z,0.90
2022-09-17T06:29:05.725Z,1.23
2022-09-17T06:30:08.190Z,0.97
2022-09-17T06:31:11.802Z,3.13
2022-09-17T06:32:17.066Z,2.17
2022-09-17T06:33:19.536Z,1.20
2022-09-17T06:34:21.650Z,0.90
2022-09-17T06:35:23.810Z,1.23
2022-09-17T06:36:28.972Z,1.40
2022-09-17T06:37:33.136Z,1.00
2022-09-17T06:38:36.545Z,1.57
2022-09-17T06:39:38.696Z,1.13
2022-09-17T06:40:41.403Z,0.90
2022-09-17T06:41:43.742Z,1.00
2022-09-17T06:42:46.050Z,1.63
2022-09-17T06:43:48.207Z,1.10
2022-09-17T06:44:50.397Z,1.00
2022-09-17T06:46:10.293Z,0.80
2022-09-17T06:47:12.481Z,1.17
2022-09-17T06:48:14.801Z,0.80
2022-09-17T06:49:17.968Z,0.97
2022-09-17T06:50:20.317Z,1.17
2022-09-17T06:51:22.746Z,0.90
2022-09-17T06:52:25.013Z,0.87
2022-09-17T06:53:27.201Z,0.97
2022-09-17T06:54:29.353Z,0.83
2022-09-17T06:55:31.682Z,1.07
2022-09-17T06:56:34.666Z,2.23
2022-09-17T06:57:36.810Z,0.70
2022-09-17T06:58:39.728Z,0.80
2022-09-17T06:59:45.454Z,0.80
2022-09-17T07:00:47.934Z,0.80
2022-09-17T07:01:50.277Z,1.57
2022-09-17T07:02:59.910Z,0.87
2022-09-17T07:04:05.437Z,1.10
2022-09-17T07:05:07.918Z,0.60
2022-09-17T07:06:11.412Z,0.70
2022-09-17T07:07:13.604Z,0.87
2022-09-17T07:08:15.715Z,1.93
2022-09-17T07:09:25.317Z,0.80
2022-09-17T07:10:27.687Z,0.90
2022-09-17T07:11:31.671Z,0.77
2022-09-17T07:12:34.148Z,0.90
2022-09-17T07:13:36.361Z,0.97
2022-09-17T07:14:38.496Z,1.50
2022-09-17T07:15:43.839Z,1.53
2022-09-17T07:16:46.056Z,1.23
2022-09-17T07:17:48.233Z,1.77
2022-09-17T07:18:50.773Z,1.70
2022-09-17T07:19:56.036Z,1.33
2022-09-17T07:21:03.533Z,1.63
2022-09-17T07:22:05.688Z,1.83
2022-09-17T07:23:08.243Z,1.67
2022-09-17T07:24:10.372Z,2.30
2022-09-17T07:25:12.594Z,2.53
2022-09-17T07:26:16.682Z,2.60
2022-09-17T07:27:18.844Z,1.80
2022-09-17T07:28:22.780Z,2.97
2022-09-17T07:29:27.196Z,3.53
2022-09-17T07:30:37.542Z,4.13
2022-09-17T07:31:39.747Z,3.00
2022-09-17T07:32:42.325Z,3.40
2022-09-17T07:33:45.601Z,4.07
2022-09-17T07:34:50.654Z,3.43
2022-09-17T07:36:01.408Z,4.37
2022-09-17T07:37:03.566Z,3.67
2022-09-17T07:38:05.738Z,4.53
2022-09-17T07:39:07.890Z,3.23
2022-09-17T07:40:10.277Z,4.30
2022-09-17T07:41:17.605Z,3.97
2022-09-17T07:42:19.822Z,4.63
2022-09-17T07:43:21.941Z,3.97
2022-09-17T07:44:24.140Z,4.70
2022-09-17T07:45:26.290Z,4.77
2022-09-17T07:46:29.218Z,5.63
2022-09-17T07:47:31.370Z,3.97
2022-09-17T07:48:34.420Z,4.73
2022-09-17T07:49:39.801Z,5.37
2022-09-17T07:50:44.232Z,5.93
2022-09-17T07:51:46.922Z,6.23
2022-09-17T07:52:49.344Z,5.67
2022-09-17T07:53:56.360Z,6.43
2022-09-17T07:55:00.799Z,7.17
2022-09-17T07:56:11.834Z,5.87
2022-09-17T07:57:14.279Z,4.67
2022-09-17T07:58:16.401Z,4.60
2022-09-17T07:59:18.580Z,5.43
2022-09-17T08:00:20.806Z,8.27
2022-09-17T08:01:23.073Z,5.20
2022-09-17T08:02:25.485Z,6.10
2022-09-17T08:03:27.730Z,7.13
2022-09-17T08:04:32.319Z,7.43
2022-09-17T08:05:36.757Z,7.20
2022-09-17T08:06:40.231Z,5.53
2022-09-17T08:07:42.354Z,7.03
2022-09-17T08:08:44.562Z,5.57
2022-09-17T08:09:46.744Z,7.40
2022-09-17T08:10:48.887Z,8.03
2022-09-17T08:11:56.003Z,7.67
2022-09-17T08:12:59.273Z,8.10
2022-09-17T08:14:04.899Z,6.07
2022-09-17T08:15:07.893Z,7.57
2022-09-17T08:16:13.476Z,6.15
2022-09-17T08:17:15.866Z,3.87
2022-09-17T08:18:18.069Z,5.45
2022-09-17T08:19:20.438Z,6.83
2022-09-17T08:20:29.450Z,6.33
2022-09-17T08:21:31.815Z,7.90
2022-09-17T08:22:34.153Z,10.97
2022-09-17T08:23:37.651Z,6.70
2022-09-17T08:24:42.591Z,9.40
2022-09-17T08:25:44.731Z,7.20
2022-09-17T08:26:46.869Z,5.87
2022-09-17T08:27:48.989Z,7.97
2022-09-17T08:29:03.304Z,7.70
2022-09-17T08:30:07.373Z,6.87
2022-09-17T08:31:09.861Z,8.77
2022-09-17T08:32:12.435Z,6.93
2022-09-17T08:33:14.566Z,6.45
2022-09-17T08:34:16.697Z,7.43
2022-09-17T08:35:19.324Z,6.07
2022-09-17T08:36:22.984Z,9.30
2022-09-17T08:37:26.505Z,8.35
2022-09-17T08:38:37.891Z,7.00
2022-09-17T08:39:40.373Z,7.45
2022-09-17T08:40:55.292Z,7.32
2022-09-17T08:42:31.426Z,7.38
2022-09-17T08:44:11.242Z,5.78
2022-09-17T08:45:16.767Z,7.10
2022-09-17T08:46:19.303Z,6.32
2022-09-17T08:47:38.662Z,4.13
2022-09-17T08:49:06.954Z,7.35
2022-09-17T08:50:32.937Z,5.93
2022-09-17T08:52:06.109Z,6.10
2022-09-17T08:53:38.699Z,6.97
2022-09-17T08:55:13.022Z,7.63
2022-09-17T08:56:19.141Z,6.50
2022-09-17T08:57:35.910Z,6.03
2022-09-17T08:59:04.752Z,8.18
2022-09-17T09:00:16.511Z,7.20
2022-09-17T09:02:00.444Z,8.68
2022-09-17T09:03:37.300Z,5.22
2022-09-17T09:04:58.739Z,7.68
2022-09-17T09:06:01.897Z,6.47
2022-09-17T09:07:12.640Z,5.85
2022-09-17T09:08:27.097Z,6.60
2022-09-17T09:09:40.202Z,4.28
2022-09-17T09:10:56.021Z,5.95
2022-09-17T09:12:05.198Z,6.18
2022-09-17T09:13:08.031Z,7.10
2022-09-17T09:14:16.957Z,5.82
2022-09-17T09:15:30.448Z,6.05
2022-09-17T09:16:38.630Z,6.20
2022-09-17T09:17:51.395Z,6.10
2022-09-17T09:18:56.054Z,4.07
2022-09-17T09:19:59.666Z,6.22
2022-09-17T09:21:10.858Z,6.30
2022-09-17T09:22:45.512Z,6.95
2022-09-17T09:24:04.477Z,3.72
2022-09-17T09:25:28.753Z,5.03
2022-09-17T09:26:49.227Z,5.15
2022-09-17T09:28:22.957Z,6.50
2022-09-17T09:30:02.294Z,6.88
2022-09-17T09:31:38.123Z,7.80
2022-09-17T09:32:59.531Z,9.45
2022-09-17T09:34:03.992Z,4.22
2022-09-17T09:35:31.527Z,5.22
2022-09-17T09:36:34.240Z,4.00
2022-09-17T09:37:40.327Z,4.13
2022-09-17T09:38:56.746Z,5.80
2022-09-17T09:40:22.282Z,3.00
2022-09-17T09:41:31.820Z,4.28
2022-09-17T09:42:36.632Z,5.97
2022-09-17T09:44:05.593Z,4.03
2022-09-17T09:45:17.914Z,6.15
2022-09-17T09:46:28.696Z,4.90
2022-09-17T09:47:42.075Z,5.72
2022-09-17T09:49:11.865Z,3.65
2022-09-17T09:51:07.139Z,4.03
2022-09-17T09:52:32.825Z,3.47
2022-09-17T09:54:20.672Z,3.78
2022-09-17T09:55:26.672Z,2.65
2022-09-17T09:56:53.832Z,6.47
2022-09-17T09:58:03.448Z,2.95
2022-09-17T09:59:11.187Z,5.22
2022-09-17T10:00:36.881Z,5.05
2022-09-17T10:01:42.622Z,3.67
2022-09-17T10:02:48.347Z,3.08
2022-09-17T10:03:54.183Z,4.18
2022-09-17T10:05:08.678Z,3.53
2022-09-17T10:06:12.138Z,3.72
2022-09-17T10:07:14.641Z,1.85
2022-09-17T10:08:16.818Z,1.52
2022-09-17T10:09:22.200Z,4.10
2022-09-17T10:10:24.392Z,2.22
2022-09-17T10:11:34.838Z,2.10
2022-09-17T10:12:37.067Z,4.03
2022-09-17T10:13:40.320Z,4.00
2022-09-17T10:14:45.125Z,3.47
2022-09-17T10:15:47.401Z,1.90
2022-09-17T10:16:49.657Z,5.15
2022-09-17T10:18:12.639Z,3.22
2022-09-17T10:19:25.872Z,2.33
2022-09-17T10:20:29.638Z,4.03
2022-09-17T10:21:34.197Z,3.47
2022-09-17T10:22:45.059Z,4.78
2022-09-17T10:23:53.705Z,2.95
2022-09-17T10:24:58.123Z,4.22
2022-09-17T10:26:00.397Z,3.67
2022-09-17T10:27:13.495Z,2.60
2022-09-17T10:28:29.663Z,2.00
2022-09-17T10:29:35.597Z,3.30
2022-09-17T10:30:37.849Z,4.55
2022-09-17T10:31:54.727Z,3.58
2022-09-17T10:33:17.744Z,3.22
2022-09-17T10:34:31.178Z,3.72
2022-09-17T10:35:33.967Z,3.55
2022-09-17T10:36:42.134Z,1.98
2022-09-17T10:37:54.251Z,3.72
2022-09-17T10:38:56.375Z,4.90
2022-09-17T10:39:58.702Z,3.97
2022-09-17T10:41:19.295Z,6.00
2022-09-17T10:42:22.229Z,3.95
2022-09-17T10:43:24.425Z,3.72
2022-09-17T10:44:32.626Z,3.25
2022-09-17T10:45:37.640Z,4.35
2022-09-17T10:46:39.918Z,2.47
2022-09-17T10:47:44.993Z,3.72
2022-09-17T10:49:12.161Z,4.30
2022-09-17T10:50:19.940Z,5.50
2022-09-17T10:51:26.603Z,5.30
2022-09-17T10:52:35.140Z,5.38
2022-09-17T10:54:14.525Z,4.18
2022-09-17T10:55:27.057Z,4.28
2022-09-17T10:56:37.781Z,3.10
2022-09-17T10:58:08.072Z,3.53
2022-09-17T10:59:28.739Z,2.65
2022-09-17T11:00:59.189Z,3.40
2022-09-17T11:02:40.552Z,4.28
2022-09-17T11:03:51.901Z,3.72
2022-09-17T11:05:21.738Z,2.88
2022-09-17T11:06:42.588Z,2.28
2022-09-17T11:08:03.361Z,4.93
2022-09-17T11:09:34.135Z,4.30
2022-09-17T11:10:58.288Z,5.88
2022-09-17T11:12:42.239Z,3.10
2022-09-17T11:14:16.517Z,4.05
2022-09-17T11:15:43.517Z,2.13
2022-09-17T11:17:21.944Z,3.42
2022-09-17T11:18:41.805Z,5.30
2022-09-17T11:20:01.886Z,4.07
2022-09-17T11:21:40.387Z,3.90
2022-09-17T11:23:14.800Z,3.60
2022-09-17T11:24:50.790Z,3.95
2022-09-17T11:26:27.073Z,4.63
2022-09-17T11:27:37.729Z,4.70
2022-09-17T11:28:51.778Z,3.47
2022-09-17T11:30:14.372Z,7.15
2022-09-17T11:31:31.850Z,5.30
2022-09-17T11:33:13.301Z,5.88
2022-09-17T11:34:26.718Z,3.75
2022-09-17T11:36:07.048Z,5.00
2022-09-17T11:37:22.371Z,3.03
2022-09-17T11:38:34.934Z,2.53
2022-09-17T11:39:59.120Z,3.00
2022-09-17T11:41:19.463Z,3.60
2022-09-17T11:42:28.196Z,2.95
2022-09-17T11:43:36.269Z,3.42
2022-09-17T11:44:59.189Z,2.33
2022-09-17T11:46:27.681Z,2.00
2022-09-17T11:47:35.330Z,3.10
2022-09-17T11:48:44.660Z,1.88
2022-09-17T11:49:52.660Z,3.20
2022-09-17T11:51:00.920Z,3.38
2022-09-17T11:52:09.474Z,3.53
2022-09-17T11:53:28.816Z,3.92
2022-09-17T11:54:45.212Z,2.92
2022-09-17T11:56:13.433Z,2.80
2022-09-17T11:57:22.673Z,5.32
2022-09-17T11:58:36.391Z,2.28
2022-09-17T11:59:50.141Z,4.40
2022-09-17T12:01:01.177Z,2.17
2022-09-17T12:02:09.417Z,6.32
2022-09-17T12:03:52.557Z,5.57
2022-09-17T12:05:26.321Z,4.05
2022-09-17T12:06:44.964Z,5.82
2022-09-17T12:08:00.094Z,4.85
2022-09-17T12:09:15.430Z,3.83
2022-09-17T12:10:35.586Z,5.97
2022-09-17T12:11:48.423Z,4.13
2022-09-17T12:12:58.125Z,3.67
2022-09-17T12:14:09.837Z,8.45
2022-09-17T12:15:21.807Z,5.78
2022-09-17T12:16:31.574Z,5.38
2022-09-17T12:18:20.647Z,4.50
2022-09-17T12:19:44.817Z,5.65
2022-09-17T12:20:52.458Z,3.70
2022-09-17T12:22:00.173Z,4.82
2022-09-17T12:23:11.075Z,3.53
2022-09-17T12:24:27.657Z,4.50
2022-09-17T12:25:38.257Z,4.50
2022-09-17T12:26:49.324Z,4.75
2022-09-17T12:28:03.894Z,3.28
2022-09-17T12:29:14.633Z,5.78
2022-09-17T12:30:25.861Z,4.55
2022-09-17T12:31:57.249Z,5.50
2022-09-17T12:33:05.540Z,4.68
2022-09-17T12:34:26.355Z,3.85
2022-09-17T12:36:05.017Z,4.03
2022-09-17T12:37:43.326Z,4.40
2022-09-17T12:38:52.736Z,4.40
2022-09-17T12:40:12.210Z,3.80
2022-09-17T12:41:20.617Z,3.67
2022-09-17T12:42:38.486Z,4.07
2022-09-17T12:43:57.770Z,5.47
2022-09-17T12:45:15.620Z,3.60
2022-09-17T12:46:52.033Z,7.38
2022-09-17T12:48:17.284Z,4.72
2022-09-17T12:49:31.277Z,4.05
2022-09-17T12:50:58.157Z,3.47
2022-09-17T12:52:36.420Z,4.32
2022-09-17T12:54:16.170Z,7.97
2022-09-17T12:55:44.379Z,4.85
2022-09-17T12:57:26.754Z,6.72
2022-09-17T12:58:47.559Z,2.58
2022-09-17T12:59:58.869Z,6.10
2022-09-17T13:01:14.638Z,4.43
2022-09-17T13:02:26.526Z,4.38
2022-09-17T13:03:42.799Z,4.43
2022-09-17T13:05:03.843Z,5.82
2022-09-17T13:06:36.801Z,6.70
2022-09-17T13:08:04.966Z,4.60
2022-09-17T13:09:15.877Z,3.63
2022-09-17T13:10:36.837Z,4.13
2022-09-17T13:12:11.106Z,5.20
2022-09-17T13:13:34.809Z,3.13
2022-09-17T13:14:55.071Z,4.43
2022-09-17T13:16:13.368Z,5.07
2022-09-17T13:19:46.948Z,3.38
2022-09-17T13:21:06.839Z,3.88
2022-09-17T13:22:17.479Z,2.40
2022-09-17T13:23:34.286Z,2.60
2022-09-17T13:24:37.759Z,2.40
2022-09-17T13:25:53.296Z,1.77
2022-09-17T13:26:56.583Z,2.42
2022-09-17T13:28:10.595Z,1.77
2022-09-17T13:29:14.654Z,2.22
2022-09-17T13:30:19.080Z,2.83
2022-09-17T13:31:39.624Z,1.75
2022-09-17T13:32:43.194Z,2.13
2022-09-17T13:33:59.642Z,1.95
2022-09-17T13:35:14.690Z,2.03
2022-09-17T13:36:36.792Z,2.00
2022-09-17T13:37:49.006Z,1.50
2022-09-17T13:38:54.237Z,2.45
2022-09-17T13:39:57.216Z,3.30
2022-09-17T13:41:20.994Z,2.70
2022-09-17T13:42:31.334Z,3.40
2022-09-17T13:43:33.553Z,2.65
2022-09-17T13:44:43.291Z,1.95
2022-09-17T13:46:11.221Z,2.67
2022-09-17T13:47:28.068Z,4.05
2022-09-17T13:48:32.717Z,2.05
2022-09-17T13:49:34.995Z,2.53
2022-09-17T13:50:39.894Z,3.58
2022-09-17T13:51:44.144Z,3.45
2022-09-17T13:52:52.355Z,3.72
2022-09-17T13:53:55.638Z,4.03
2022-09-17T13:54:58.576Z,4.28
2022-09-17T13:56:31.967Z,3.72
2022-09-17T13:57:47.484Z,4.13
2022-09-17T13:58:49.679Z,4.53
2022-09-17T13:59:54.541Z,3.38
2022-09-17T14:01:08.049Z,3.17
2022-09-17T14:02:16.260Z,4.22
2022-09-17T14:03:48.675Z,3.20
2022-09-17T14:05:24.205Z,4.47
2022-09-17T14:06:26.321Z,5.13
2022-09-17T14:07:33.725Z,2.78
2022-09-17T14:08:45.459Z,5.25
2022-09-17T14:10:17.003Z,7.40
2022-09-17T14:11:32.517Z,3.20
2022-09-17T14:13:01.118Z,4.60
2022-09-17T14:14:03.257Z,5.28
2022-09-17T14:15:34.559Z,7.75
2022-09-17T14:16:43.388Z,4.22
2022-09-17T14:17:53.454Z,4.10
2022-09-17T14:19:01.711Z,4.00
2022-09-17T14:20:05.505Z,2.53
2022-09-17T14:21:24.235Z,3.85
2022-09-17T14:22:27.060Z,3.50
2022-09-17T14:23:29.340Z,3.60
2022-09-17T14:24:44.857Z,4.80
2022-09-17T14:25:55.120Z,5.07
2022-09-17T14:26:57.828Z,3.55
2022-09-17T14:28:08.315Z,3.75
2022-09-17T14:29:41.143Z,3.13
2022-09-17T14:30:44.305Z,4.55
2022-09-17T14:31:46.572Z,5.93
2022-09-17T14:33:02.883Z,4.25
2022-09-17T14:34:09.900Z,5.38
2022-09-17T14:35:41.711Z,5.22
2022-09-17T14:36:43.891Z,5.45
2022-09-17T14:37:52.663Z,3.72
2022-09-17T14:38:57.380Z,4.78
2022-09-17T14:39:59.764Z,3.83
2022-09-17T14:41:18.873Z,5.90
2022-09-17T14:42:32.329Z,4.40
2022-09-17T14:43:41.220Z,3.35
2022-09-17T14:45:06.453Z,4.95
2022-09-17T14:46:19.050Z,3.38
2022-09-17T14:47:22.665Z,4.88
2022-09-17T14:48:29.055Z,7.22
2022-09-17T14:49:34.455Z,4.63
2022-09-17T14:50:36.787Z,4.82
2022-09-17T14:51:42.149Z,5.68
2022-09-17T14:52:50.074Z,6.68
2022-09-17T14:54:05.730Z,5.97
2022-09-17T14:55:19.348Z,5.10
2022-09-17T14:56:22.590Z,5.90
2022-09-17T14:57:28.271Z,4.55
2022-09-17T14:58:37.901Z,4.10
2022-09-17T14:59:57.674Z,4.88
2022-09-17T15:01:00.275Z,3.10
2022-09-17T15:02:03.490Z,4.10
2022-09-17T15:03:06.310Z,5.40
2022-09-17T15:04:14.399Z,4.40
2022-09-17T15:05:31.713Z,4.40
2022-09-17T15:06:34.682Z,4.72
2022-09-17T15:07:39.936Z,4.55
2022-09-17T15:08:46.003Z,3.95
2022-09-17T15:09:50.331Z,7.43
2022-09-17T15:10:56.886Z,3.95
2022-09-17T15:12:02.087Z,3.35
2022-09-17T15:13:07.688Z,2.08
2022-09-17T15:14:18.807Z,2.58
2022-09-17T15:15:26.854Z,2.83
2022-09-17T15:16:30.836Z,3.10
2022-09-17T15:17:33.793Z,2.60
2022-09-17T15:18:40.503Z,3.20
2022-09-17T15:19:48.119Z,3.45
2022-09-17T15:20:51.804Z,4.03
2022-09-17T15:21:56.825Z,2.33
2022-09-17T15:23:20.321Z,3.42
2022-09-17T15:24:47.933Z,5.05
2022-09-17T15:25:54.943Z,2.95
2022-09-17T15:26:59.759Z,4.05
2022-09-17T15:28:18.654Z,4.32
2022-09-17T15:29:26.732Z,4.03
2022-09-17T15:30:29.040Z,2.88
2022-09-17T15:31:31.440Z,3.33